createdAt,value
2019-01-20T00:00:28.492Z,37.90
2019-01-20T00:01:28.517Z,35.60
2019-01-20T00:02:28.463Z,36.50
2019-01-20T00:03:28.429Z,34.80
2019-01-20T00:04:28.425Z,37.50
2019-01-20T00:05:28.439Z,36.40
2019-01-20T00:06:28.419Z,36.80
2019-01-20T00:07:28.407Z,36.10
2019-01-20T00:08:28.388Z,38.30
2019-01-20T00:09:28.369Z,37.80
2019-01-20T00:10:28.350Z,39.00
2019-01-20T00:11:28.372Z,37.50
2019-01-20T00:12:28.347Z,37.30
2019-01-20T00:13:28.325Z,38.70
2019-01-20T00:14:28.316Z,40.50
2019-01-20T00:15:28.305Z,42.30
2019-01-20T00:16:28.319Z,38.60
2019-01-20T00:17:28.293Z,41.40
2019-01-20T00:18:28.268Z,37.20
2019-01-20T00:19:28.265Z,38.70
2019-01-20T00:20:28.294Z,38.20
2019-01-20T00:21:28.249Z,36.70
2019-01-20T00:22:28.254Z,36.20
2019-01-20T00:23:28.212Z,41.00
2019-01-20T00:24:28.202Z,39.80
2019-01-20T00:25:28.198Z,40.20
2019-01-20T00:26:28.206Z,36.40
2019-01-20T00:27:28.173Z,38.00
2019-01-20T00:28:28.164Z,40.10
2019-01-20T00:29:28.183Z,38.80
2019-01-20T00:30:28.137Z,38.60
2019-01-20T00:31:28.142Z,44.30
2019-01-20T00:32:28.116Z,38.80
2019-01-20T00:33:28.111Z,36.90
2019-01-20T00:34:28.100Z,39.60
2019-01-20T00:35:28.099Z,40.10
2019-01-20T00:36:28.094Z,39.80
2019-01-20T00:37:28.066Z,40.10
2019-01-20T00:38:28.046Z,38.90
2019-01-20T00:39:28.036Z,40.90
2019-01-20T00:40:28.038Z,39.70
2019-01-20T00:41:28.042Z,39.20
2019-01-20T00:42:28.025Z,40.00
2019-01-20T00:43:27.995Z,39.70
2019-01-20T00:44:27.991Z,38.80
2019-01-20T00:45:27.981Z,44.90
2019-01-20T00:46:27.997Z,42.30
2019-01-20T00:47:27.961Z,43.10
2019-01-20T00:48:27.942Z,42.50
2019-01-20T00:49:27.943Z,45.20
2019-01-20T00:50:27.912Z,39.10
2019-01-20T00:51:27.900Z,45.50
2019-01-20T00:52:27.923Z,46.40
2019-01-20T00:53:27.893Z,41.10
2019-01-20T00:54:27.872Z,38.90
2019-01-20T00:55:27.883Z,41.40
2019-01-20T00:56:27.866Z,43.00
2019-01-20T00:57:27.862Z,44.50
2019-01-20T00:58:27.835Z,41.10
2019-01-20T00:59:27.821Z,38.80
2019-01-20T01:00:27.807Z,44.60
2019-01-20T01:01:27.803Z,41.00
2019-01-20T01:02:27.808Z,43.70
2019-01-20T01:03:27.781Z,41.00
2019-01-20T01:04:27.763Z,40.30
2019-01-20T01:05:27.760Z,44.00
2019-01-20T01:06:27.740Z,46.00
2019-01-20T01:07:27.758Z,40.90
2019-01-20T01:08:27.723Z,45.00
2019-01-20T01:09:27.708Z,44.00
2019-01-20T01:10:27.706Z,43.30
2019-01-20T01:11:31.795Z,42.30
2019-01-20T01:12:27.697Z,43.80
2019-01-20T01:13:27.676Z,42.10
2019-01-20T01:14:27.665Z,46.40
2019-01-20T01:15:27.636Z,41.70
2019-01-20T01:16:27.633Z,42.10
2019-01-20T01:17:27.647Z,45.70
2019-01-20T01:18:27.621Z,41.10
2019-01-20T01:19:27.606Z,40.70
2019-01-20T01:20:27.599Z,41.30
2019-01-20T01:21:27.579Z,49.20
2019-01-20T01:22:27.588Z,40.80
2019-01-20T01:23:27.564Z,45.90
2019-01-20T01:24:27.551Z,42.90
2019-01-20T01:25:27.541Z,41.80
2019-01-20T01:26:27.545Z,39.90
2019-01-20T01:27:27.538Z,47.20
2019-01-20T01:28:27.500Z,46.00
2019-01-20T01:29:27.491Z,45.70
2019-01-20T01:30:27.484Z,44.60
2019-01-20T01:31:27.489Z,40.90
2019-01-20T01:32:27.474Z,41.90
2019-01-20T01:33:27.447Z,39.30
2019-01-20T01:34:27.439Z,40.10
2019-01-20T01:35:27.437Z,41.20
2019-01-20T01:36:27.428Z,42.40
2019-01-20T01:37:27.414Z,43.40
2019-01-20T01:38:27.406Z,39.90
2019-01-20T01:39:27.390Z,42.20
2019-01-20T01:40:27.372Z,38.90
2019-01-20T01:41:27.364Z,41.10
2019-01-20T01:42:27.362Z,42.80
2019-01-20T01:43:27.330Z,37.00
2019-01-20T01:44:27.330Z,37.40
2019-01-20T01:45:27.323Z,42.70
2019-01-20T01:46:27.313Z,43.50
2019-01-20T01:47:27.333Z,40.90
2019-01-20T01:48:27.300Z,38.90
2019-01-20T01:49:27.280Z,41.60
2019-01-20T01:50:27.276Z,41.30
2019-01-20T01:51:27.258Z,43.70
2019-01-20T01:52:27.239Z,37.20
2019-01-20T01:53:27.244Z,42.70
2019-01-20T01:54:27.216Z,40.50
2019-01-20T01:55:27.206Z,41.80
2019-01-20T01:56:27.194Z,40.90
2019-01-20T01:57:27.190Z,37.20
2019-01-20T01:58:27.200Z,39.80
2019-01-20T01:59:27.162Z,39.80
2019-01-20T02:00:27.179Z,40.50
2019-01-20T02:01:27.136Z,43.10
2019-01-20T02:02:27.130Z,40.20
2019-01-20T02:03:27.137Z,38.20
2019-01-20T02:04:27.113Z,42.40
2019-01-20T02:05:27.104Z,39.90
2019-01-20T02:06:27.088Z,45.70
2019-01-20T02:07:27.078Z,43.40
2019-01-20T02:08:27.082Z,42.50
2019-01-20T02:09:27.059Z,41.70
2019-01-20T02:10:27.039Z,40.20
2019-01-20T02:11:27.032Z,41.60
2019-01-20T02:12:27.030Z,43.00
2019-01-20T02:13:27.023Z,41.60
2019-01-20T02:14:27.008Z,41.80
2019-01-20T02:15:26.995Z,43.40
2019-01-20T02:16:26.979Z,42.50
2019-01-20T02:17:26.965Z,40.70
2019-01-20T02:18:26.971Z,41.90
2019-01-20T02:19:26.953Z,43.70
2019-01-20T02:20:26.931Z,39.00
2019-01-20T02:21:26.922Z,42.30
2019-01-20T02:22:26.939Z,40.70
2019-01-20T02:23:26.933Z,42.20
2019-01-20T02:24:26.890Z,44.10
2019-01-20T02:25:26.897Z,40.10
2019-01-20T02:26:26.867Z,42.20
2019-01-20T02:27:26.865Z,42.10
2019-01-20T02:28:26.852Z,45.80
2019-01-20T02:29:26.858Z,41.40
2019-01-20T02:30:26.821Z,43.90
2019-01-20T02:31:26.817Z,41.20
2019-01-20T02:32:26.809Z,42.90
2019-01-20T02:33:26.791Z,37.70
2019-01-20T02:34:26.795Z,43.30
2019-01-20T02:35:26.773Z,42.60
2019-01-20T02:36:26.757Z,39.40
2019-01-20T02:37:26.747Z,42.40
2019-01-20T02:38:26.756Z,45.20
2019-01-20T02:39:26.753Z,42.10
2019-01-20T02:40:26.718Z,44.50
2019-01-20T02:41:26.704Z,41.30
2019-01-20T02:42:26.691Z,44.10
2019-01-20T02:43:26.685Z,43.30
2019-01-20T02:44:26.681Z,43.40
2019-01-20T02:45:26.661Z,44.60
2019-01-20T02:46:26.659Z,45.00
2019-01-20T02:47:26.656Z,40.80
2019-01-20T02:48:26.632Z,39.00
2019-01-20T02:49:26.642Z,42.90
2019-01-20T02:50:26.608Z,42.00
2019-01-20T02:51:26.593Z,41.90
2019-01-20T02:52:26.583Z,47.10
2019-01-20T02:53:26.577Z,41.40
2019-01-20T02:54:26.594Z,42.80
2019-01-20T02:55:26.557Z,39.10
2019-01-20T02:56:26.540Z,44.10
2019-01-20T02:57:26.540Z,43.60
2019-01-20T02:58:26.520Z,47.60
2019-01-20T02:59:26.526Z,42.70
2019-01-20T03:00:26.530Z,43.70
2019-01-20T03:01:26.486Z,44.70
2019-01-20T03:02:26.492Z,41.60
2019-01-20T03:03:26.469Z,39.50
2019-01-20T03:04:26.491Z,44.90
2019-01-20T03:05:26.444Z,42.30
2019-01-20T03:06:26.437Z,42.90
2019-01-20T03:07:26.422Z,42.70
2019-01-20T03:08:26.420Z,44.50
2019-01-20T03:09:26.396Z,41.90
2019-01-20T03:10:26.404Z,40.20
2019-01-20T03:11:26.438Z,43.40
2019-01-20T03:12:26.370Z,46.60
2019-01-20T03:13:26.354Z,39.50
2019-01-20T03:14:26.335Z,39.40
2019-01-20T03:15:26.347Z,41.60
2019-01-20T03:16:26.330Z,41.70
2019-01-20T03:17:26.310Z,41.90
2019-01-20T03:18:26.313Z,43.40
2019-01-20T03:19:26.285Z,41.70
2019-01-20T03:20:26.290Z,40.80
2019-01-20T03:21:26.358Z,44.50
2019-01-20T03:22:26.262Z,46.00
2019-01-20T03:23:26.250Z,44.90
2019-01-20T03:24:26.238Z,45.40
2019-01-20T03:25:26.241Z,46.90
2019-01-20T03:26:26.211Z,39.00
2019-01-20T03:27:26.199Z,43.70
2019-01-20T03:28:26.191Z,39.30
2019-01-20T03:29:26.177Z,42.20
2019-01-20T03:30:26.190Z,42.90
2019-01-20T03:31:26.313Z,41.60
2019-01-20T03:32:28.907Z,42.60
2019-01-20T03:33:26.141Z,42.30
2019-01-20T03:34:26.132Z,43.70
2019-01-20T03:35:26.128Z,43.00
2019-01-20T03:36:26.103Z,42.10
2019-01-20T03:37:26.104Z,46.30
2019-01-20T03:38:26.083Z,42.50
2019-01-20T03:39:26.083Z,42.50
2019-01-20T03:40:26.070Z,45.30
2019-01-20T03:41:26.052Z,42.10
2019-01-20T03:42:26.049Z,45.10
2019-01-20T03:43:26.032Z,44.70
2019-01-20T03:44:26.026Z,43.00
2019-01-20T03:45:26.031Z,44.40
2019-01-20T03:46:25.999Z,45.10
2019-01-20T03:47:25.988Z,44.00
2019-01-20T03:48:25.983Z,44.40
2019-01-20T03:49:25.987Z,46.80
2019-01-20T03:50:25.958Z,45.60
2019-01-20T03:51:25.965Z,50.10
2019-01-20T03:52:25.927Z,46.60
2019-01-20T03:53:25.921Z,42.00
2019-01-20T03:54:25.909Z,45.90
2019-01-20T03:55:25.902Z,44.70
2019-01-20T03:56:25.916Z,49.60
2019-01-20T03:57:25.875Z,46.30
2019-01-20T03:58:25.861Z,50.30
2019-01-20T03:59:25.852Z,44.60
2019-01-20T04:00:25.851Z,46.20
2019-01-20T04:01:25.849Z,43.50
2019-01-20T04:02:25.844Z,46.60
2019-01-20T04:03:25.808Z,49.00
2019-01-20T04:04:25.798Z,44.40
2019-01-20T04:05:25.797Z,47.50
2019-01-20T04:06:25.802Z,45.90
2019-01-20T04:07:25.761Z,47.00
2019-01-20T04:08:25.758Z,45.80
2019-01-20T04:09:25.745Z,43.60
2019-01-20T04:10:25.740Z,46.60
2019-01-20T04:11:25.747Z,47.20
2019-01-20T04:12:25.726Z,46.00
2019-01-20T04:13:25.704Z,49.20
2019-01-20T04:14:25.693Z,49.60
2019-01-20T04:15:25.680Z,47.70
2019-01-20T04:16:25.676Z,45.30
2019-01-20T04:17:25.672Z,46.80
2019-01-20T04:18:25.650Z,44.90
2019-01-20T04:19:25.634Z,43.30
2019-01-20T04:20:25.629Z,44.00
2019-01-20T04:21:25.633Z,46.60
2019-01-20T04:22:25.616Z,45.80
2019-01-20T04:23:25.595Z,50.50
2019-01-20T04:24:25.603Z,48.80
2019-01-20T04:25:25.565Z,47.40
2019-01-20T04:26:25.591Z,47.00
2019-01-20T04:27:25.553Z,44.60
2019-01-20T04:28:25.543Z,44.20
2019-01-20T04:29:25.540Z,47.50
2019-01-20T04:30:25.516Z,44.20
2019-01-20T04:31:25.509Z,49.60
2019-01-20T04:32:25.504Z,47.40
2019-01-20T04:33:25.486Z,51.10
2019-01-20T04:34:25.470Z,43.90
2019-01-20T04:35:25.466Z,48.00
2019-01-20T04:36:25.452Z,44.50
2019-01-20T04:37:25.457Z,49.90
2019-01-20T04:38:25.436Z,48.30
2019-01-20T04:39:25.430Z,49.00
2019-01-20T04:40:25.404Z,45.30
2019-01-20T04:41:25.405Z,48.00
2019-01-20T04:42:29.266Z,45.10
2019-01-20T04:43:25.373Z,45.70
2019-01-20T04:44:25.377Z,48.40
2019-01-20T04:45:25.352Z,51.00
2019-01-20T04:46:25.347Z,45.40
2019-01-20T04:47:25.348Z,46.90
2019-01-20T04:48:25.325Z,46.00
2019-01-20T04:49:25.310Z,49.80
2019-01-20T04:50:25.311Z,45.90
2019-01-20T04:51:25.287Z,51.60
2019-01-20T04:52:25.289Z,46.80
2019-01-20T04:53:25.266Z,51.50
2019-01-20T04:54:25.263Z,49.20
2019-01-20T04:55:25.243Z,49.90
2019-01-20T04:56:25.243Z,49.30
2019-01-20T04:57:25.245Z,51.00
2019-01-20T04:58:25.230Z,49.10
2019-01-20T04:59:25.191Z,45.00
2019-01-20T05:00:25.192Z,47.10
2019-01-20T05:01:25.184Z,48.90
2019-01-20T05:02:25.187Z,48.00
2019-01-20T05:03:25.161Z,51.20
2019-01-20T05:04:25.158Z,50.30
2019-01-20T05:05:25.152Z,51.70
2019-01-20T05:06:25.121Z,54.00
2019-01-20T05:07:25.115Z,50.60
2019-01-20T05:08:25.121Z,51.60
2019-01-20T05:09:25.163Z,58.40
2019-01-20T05:10:25.087Z,50.50
2019-01-20T05:11:25.067Z,52.80
2019-01-20T05:12:25.070Z,49.60
2019-01-20T05:13:25.062Z,51.50
2019-01-20T05:14:25.040Z,52.10
2019-01-20T05:15:25.022Z,51.60
2019-01-20T05:16:25.013Z,54.10
2019-01-20T05:17:25.015Z,54.90
2019-01-20T05:18:25.010Z,50.90
2019-01-20T05:19:24.982Z,53.20
2019-01-20T05:20:24.990Z,53.20
2019-01-20T05:21:24.961Z,52.60
2019-01-20T05:22:24.953Z,52.30
2019-01-20T05:23:24.952Z,53.70
2019-01-20T05:24:24.928Z,53.90
2019-01-20T05:25:24.922Z,51.10
2019-01-20T05:26:24.907Z,52.90
2019-01-20T05:27:24.901Z,50.80
2019-01-20T05:28:24.896Z,49.40
2019-01-20T05:29:24.875Z,53.80
2019-01-20T05:30:24.874Z,53.50
2019-01-20T05:31:24.850Z,51.00
2019-01-20T05:32:24.844Z,58.50
2019-01-20T05:33:24.846Z,55.60
2019-01-20T05:34:24.810Z,52.80
2019-01-20T05:35:24.815Z,48.60
2019-01-20T05:36:24.790Z,54.90
2019-01-20T05:37:24.798Z,47.40
2019-01-20T05:38:24.803Z,49.00
2019-01-20T05:39:24.766Z,50.60
2019-01-20T05:40:24.750Z,50.40
2019-01-20T05:41:24.755Z,55.00
2019-01-20T05:42:24.742Z,47.90
2019-01-20T05:43:24.796Z,54.40
2019-01-20T05:44:24.703Z,57.00
2019-01-20T05:45:24.719Z,54.40
2019-01-20T05:46:24.698Z,53.40
2019-01-20T05:47:24.675Z,56.40
2019-01-20T05:48:24.662Z,51.30
2019-01-20T05:49:24.671Z,49.70
2019-01-20T05:50:24.652Z,51.80
2019-01-20T05:51:24.634Z,52.80
2019-01-20T05:52:24.621Z,52.80
2019-01-20T05:53:24.610Z,49.30
2019-01-20T05:54:24.629Z,50.00
2019-01-20T05:55:24.597Z,53.90
2019-01-20T05:56:24.591Z,51.60
2019-01-20T05:57:24.568Z,55.20
2019-01-20T05:58:24.554Z,49.40
2019-01-20T05:59:24.566Z,53.30
2019-01-20T06:00:24.529Z,53.80
2019-01-20T06:01:24.528Z,51.00
2019-01-20T06:02:24.529Z,51.30
2019-01-20T06:03:24.505Z,49.10
2019-01-20T06:04:24.505Z,51.30
2019-01-20T06:05:24.483Z,53.30
2019-01-20T06:06:24.467Z,55.90
2019-01-20T06:07:24.459Z,54.30
2019-01-20T06:08:24.461Z,52.20
2019-01-20T06:09:24.450Z,53.80
2019-01-20T06:10:24.417Z,51.70
2019-01-20T06:11:24.421Z,52.80
2019-01-20T06:12:24.401Z,56.30
2019-01-20T06:13:24.389Z,49.80
2019-01-20T06:14:24.407Z,56.00
2019-01-20T06:15:24.375Z,57.50
2019-01-20T06:16:24.362Z,57.10
2019-01-20T06:17:24.352Z,52.50
2019-01-20T06:18:24.337Z,54.70
2019-01-20T06:19:24.351Z,52.20
2019-01-20T06:20:24.329Z,56.10
2019-01-20T06:21:24.303Z,52.10
2019-01-20T06:22:24.301Z,56.50
2019-01-20T06:23:24.281Z,53.80
2019-01-20T06:24:24.271Z,56.00
2019-01-20T06:25:24.369Z,51.10
2019-01-20T06:26:24.255Z,52.40
2019-01-20T06:27:24.235Z,54.70
2019-01-20T06:28:24.239Z,55.50
2019-01-20T06:29:24.215Z,54.60
2019-01-20T06:30:24.229Z,54.80
2019-01-20T06:31:24.195Z,53.40
2019-01-20T06:32:24.200Z,54.80
2019-01-20T06:33:24.173Z,50.80
2019-01-20T06:34:24.185Z,54.00
2019-01-20T06:35:24.182Z,51.30
2019-01-20T06:36:24.150Z,51.70
2019-01-20T06:37:24.144Z,55.90
2019-01-20T06:38:24.123Z,50.10
2019-01-20T06:39:24.113Z,55.60
2019-01-20T06:40:24.122Z,50.80
2019-01-20T06:41:24.089Z,50.80
2019-01-20T06:42:24.075Z,53.60
2019-01-20T06:43:24.065Z,55.50
2019-01-20T06:44:24.051Z,55.10
2019-01-20T06:45:24.056Z,50.90
2019-01-20T06:46:24.041Z,50.30
2019-01-20T06:47:24.019Z,55.10
2019-01-20T06:48:24.021Z,47.80
2019-01-20T06:49:24.015Z,51.00
2019-01-20T06:50:24.015Z,50.90
2019-01-20T06:51:23.988Z,48.90
2019-01-20T06:52:23.984Z,52.80
2019-01-20T06:53:23.963Z,52.20
2019-01-20T06:54:23.954Z,53.20
2019-01-20T06:55:23.949Z,50.40
2019-01-20T06:56:23.932Z,54.20
2019-01-20T06:57:23.918Z,52.30
2019-01-20T06:58:23.928Z,51.80
2019-01-20T06:59:23.889Z,55.20
2019-01-20T07:00:23.895Z,52.90
2019-01-20T07:01:23.868Z,53.40
2019-01-20T07:02:23.867Z,58.10
2019-01-20T07:03:23.858Z,55.70
2019-01-20T07:04:23.843Z,54.70
2019-01-20T07:05:23.856Z,52.70
2019-01-20T07:06:23.820Z,54.60
2019-01-20T07:07:23.808Z,54.30
2019-01-20T07:08:23.794Z,50.70
2019-01-20T07:09:23.792Z,52.90
2019-01-20T07:10:23.782Z,59.20
2019-01-20T07:11:23.772Z,56.30
2019-01-20T07:12:23.748Z,51.70
2019-01-20T07:13:23.745Z,51.60
2019-01-20T07:14:23.745Z,53.20
2019-01-20T07:15:23.724Z,55.00
2019-01-20T07:16:23.734Z,54.80
2019-01-20T07:17:23.700Z,49.60
2019-01-20T07:18:23.704Z,53.90
2019-01-20T07:19:23.685Z,54.90
2019-01-20T07:20:23.669Z,54.30
2019-01-20T07:21:23.670Z,50.20
2019-01-20T07:22:23.642Z,50.60
2019-01-20T07:23:23.637Z,57.50
2019-01-20T07:24:23.620Z,53.00
2019-01-20T07:25:23.612Z,49.30
2019-01-20T07:26:23.614Z,53.10
2019-01-20T07:27:23.604Z,55.30
2019-01-20T07:28:23.589Z,50.80
2019-01-20T07:29:24.711Z,55.60
2019-01-20T07:30:23.564Z,50.00
2019-01-20T07:31:23.558Z,50.90
2019-01-20T07:32:23.530Z,54.90
2019-01-20T07:33:23.525Z,56.40
2019-01-20T07:34:23.505Z,49.50
2019-01-20T07:35:23.520Z,54.10
2019-01-20T07:36:23.593Z,57.00
2019-01-20T07:37:23.493Z,51.70
2019-01-20T07:38:23.475Z,54.00
2019-01-20T07:39:23.454Z,55.30
2019-01-20T07:40:23.450Z,52.80
2019-01-20T07:41:23.456Z,53.20
2019-01-20T07:42:23.430Z,54.70
2019-01-20T07:43:23.408Z,58.20
2019-01-20T07:44:23.411Z,58.80
2019-01-20T07:45:23.389Z,56.40
2019-01-20T07:46:23.395Z,54.60
2019-01-20T07:47:23.392Z,49.10
2019-01-20T07:48:23.375Z,53.40
2019-01-20T07:49:23.347Z,55.60
2019-01-20T07:50:23.353Z,50.60
2019-01-20T07:51:23.338Z,54.20
2019-01-20T07:52:23.365Z,55.50
2019-01-20T07:53:23.315Z,56.80
2019-01-20T07:54:23.309Z,55.00
2019-01-20T07:55:23.284Z,56.60
2019-01-20T07:56:23.274Z,55.90
2019-01-20T07:57:23.282Z,53.70
2019-01-20T07:58:23.295Z,55.40
2019-01-20T07:59:23.240Z,55.40
2019-01-20T08:00:23.234Z,57.40
2019-01-20T08:01:23.223Z,56.40
2019-01-20T08:02:23.223Z,57.30
2019-01-20T08:03:23.205Z,52.60
2019-01-20T08:04:23.187Z,52.90
2019-01-20T08:05:23.177Z,53.70
2019-01-20T08:06:23.161Z,58.10
2019-01-20T08:07:23.181Z,61.70
2019-01-20T08:08:23.160Z,56.10
2019-01-20T08:09:23.149Z,59.10
2019-01-20T08:10:23.117Z,55.60
2019-01-20T08:11:23.108Z,54.10
2019-01-20T08:12:23.575Z,58.00
2019-01-20T08:13:24.438Z,58.60
2019-01-20T08:14:23.080Z,57.60
2019-01-20T08:15:23.078Z,61.80
2019-01-20T08:16:23.066Z,65.20
2019-01-20T08:17:23.053Z,61.20
2019-01-20T08:18:23.053Z,58.90
2019-01-20T08:19:23.029Z,60.30
2019-01-20T08:20:23.017Z,58.90
2019-01-20T08:21:23.016Z,64.20
2019-01-20T08:22:22.986Z,62.10
2019-01-20T08:23:22.992Z,61.50
2019-01-20T08:24:22.976Z,57.80
2019-01-20T08:25:22.967Z,62.90
2019-01-20T08:26:23.004Z,62.40
2019-01-20T08:27:22.934Z,60.00
2019-01-20T08:28:22.941Z,58.40
2019-01-20T08:29:22.910Z,58.20
2019-01-20T08:30:22.904Z,62.60
2019-01-20T08:31:22.887Z,63.90
2019-01-20T08:32:22.878Z,59.20
2019-01-20T08:33:22.886Z,68.60
2019-01-20T08:34:22.870Z,66.20
2019-01-20T08:35:22.852Z,63.00
2019-01-20T08:36:22.844Z,66.90
2019-01-20T08:37:28.762Z,68.80
2019-01-20T08:38:23.826Z,68.20
2019-01-20T08:39:22.810Z,64.30
2019-01-20T08:40:22.796Z,70.70
2019-01-20T08:41:22.774Z,63.70
2019-01-20T08:42:22.780Z,65.90
2019-01-20T08:43:22.782Z,64.00
2019-01-20T08:44:22.761Z,60.70
2019-01-20T08:45:22.742Z,58.80
2019-01-20T08:46:22.730Z,61.30
2019-01-20T08:47:22.729Z,61.90
2019-01-20T08:48:22.724Z,60.30
2019-01-20T08:49:22.757Z,64.60
2019-01-20T08:50:22.694Z,64.30
2019-01-20T08:51:22.682Z,64.30
2019-01-20T08:52:22.661Z,65.30
2019-01-20T08:53:22.673Z,63.50
2019-01-20T08:54:22.656Z,66.40
2019-01-20T08:55:22.634Z,60.20
2019-01-20T08:56:22.650Z,64.70
2019-01-20T08:57:22.635Z,66.30
2019-01-20T08:58:22.618Z,58.80
2019-01-20T08:59:22.598Z,60.60
2019-01-20T09:00:22.577Z,63.30
2019-01-20T09:01:22.577Z,62.20
2019-01-20T09:02:22.551Z,63.20
2019-01-20T09:03:22.545Z,62.00
2019-01-20T09:04:22.555Z,64.80
2019-01-20T09:05:22.528Z,64.20
2019-01-20T09:06:22.507Z,61.50
2019-01-20T09:07:22.506Z,63.50
2019-01-20T09:08:22.498Z,64.70
2019-01-20T09:09:22.511Z,70.90
2019-01-20T09:10:22.466Z,65.70
2019-01-20T09:11:22.455Z,62.00
2019-01-20T09:12:22.453Z,70.50
2019-01-20T09:13:22.454Z,62.40
2019-01-20T09:14:22.456Z,66.70
2019-01-20T09:15:22.413Z,62.20
2019-01-20T09:16:22.406Z,68.70
2019-01-20T09:17:22.400Z,64.60
2019-01-20T09:18:22.383Z,67.40
2019-01-20T09:19:22.382Z,66.50
2019-01-20T09:20:22.361Z,58.60
2019-01-20T09:21:22.357Z,65.20
2019-01-20T09:22:22.351Z,66.10
2019-01-20T09:23:22.345Z,64.60
2019-01-20T09:24:22.342Z,62.30
2019-01-20T09:25:22.321Z,62.30
2019-01-20T09:26:22.314Z,65.20
2019-01-20T09:27:22.287Z,67.40
2019-01-20T09:28:22.283Z,66.70
2019-01-20T09:29:22.271Z,65.40
2019-01-20T09:30:22.259Z,62.30
2019-01-20T09:31:22.239Z,64.50
2019-01-20T09:32:22.259Z,67.10
2019-01-20T09:33:24.641Z,66.80
2019-01-20T09:34:22.232Z,68.20
2019-01-20T09:35:22.205Z,66.40
2019-01-20T09:36:22.189Z,60.40
2019-01-20T09:37:22.182Z,70.20
2019-01-20T09:38:22.169Z,66.90
2019-01-20T09:39:22.192Z,63.70
2019-01-20T09:40:22.136Z,67.60
2019-01-20T09:41:22.139Z,67.30
2019-01-20T09:42:22.125Z,66.20
2019-01-20T09:43:22.126Z,63.70
2019-01-20T09:44:22.103Z,67.30
2019-01-20T09:45:22.105Z,66.00
2019-01-20T09:46:22.097Z,65.90
2019-01-20T09:47:22.085Z,67.60
2019-01-20T09:48:22.091Z,65.60
2019-01-20T09:49:22.045Z,71.20
2019-01-20T09:50:22.052Z,65.60
2019-01-20T09:51:22.035Z,65.00
2019-01-20T09:52:22.028Z,66.20
2019-01-20T09:53:22.009Z,64.90
2019-01-20T09:54:21.983Z,68.90
2019-01-20T09:55:22.005Z,64.10
2019-01-20T09:56:21.984Z,67.00
2019-01-20T09:57:21.957Z,69.20
2019-01-20T09:58:21.964Z,68.00
2019-01-20T09:59:21.936Z,69.10
2019-01-20T10:00:21.962Z,65.90
2019-01-20T10:01:21.908Z,67.20
2019-01-20T10:02:21.956Z,66.90
2019-01-20T10:03:21.889Z,74.00
2019-01-20T10:04:21.882Z,65.50
2019-01-20T10:05:21.913Z,69.60
2019-01-20T10:06:21.914Z,68.40
2019-01-20T10:07:21.852Z,68.20
2019-01-20T10:08:21.839Z,67.20
2019-01-20T10:09:21.824Z,68.20
2019-01-20T10:10:21.831Z,67.90
2019-01-20T10:11:21.823Z,67.70
2019-01-20T10:12:21.795Z,65.30
2019-01-20T10:13:21.789Z,65.30
2019-01-20T10:14:21.776Z,70.90
2019-01-20T10:15:21.774Z,70.50
2019-01-20T10:16:21.773Z,69.70
2019-01-20T10:17:21.733Z,70.10
2019-01-20T10:18:21.735Z,64.60
2019-01-20T10:19:21.788Z,63.70
2019-01-20T10:20:21.717Z,70.10
2019-01-20T10:21:21.718Z,63.50
2019-01-20T10:22:21.685Z,69.20
2019-01-20T10:23:21.679Z,63.60
2019-01-20T10:24:21.676Z,62.00
2019-01-20T10:25:21.651Z,62.40
2019-01-20T10:26:21.682Z,63.40
2019-01-20T10:27:21.639Z,63.40
2019-01-20T10:28:21.632Z,64.90
2019-01-20T10:29:21.621Z,66.80
2019-01-20T10:30:21.608Z,65.00
2019-01-20T10:31:21.619Z,65.80
2019-01-20T10:32:21.582Z,67.20
2019-01-20T10:33:21.563Z,66.30
2019-01-20T10:34:21.569Z,66.50
2019-01-20T10:35:21.553Z,64.30
2019-01-20T10:36:21.567Z,67.20
2019-01-20T10:37:21.558Z,66.80
2019-01-20T10:38:21.533Z,65.60
2019-01-20T10:39:21.495Z,68.50
2019-01-20T10:40:21.502Z,69.50
2019-01-20T10:41:21.521Z,69.40
2019-01-20T10:42:21.477Z,65.50
2019-01-20T10:43:21.469Z,62.30
2019-01-20T10:44:21.444Z,60.50
2019-01-20T10:45:21.431Z,62.60
2019-01-20T10:46:21.465Z,62.20
2019-01-20T10:47:21.425Z,60.10
2019-01-20T10:48:21.411Z,62.70
2019-01-20T10:49:21.395Z,63.60
2019-01-20T10:50:21.411Z,61.00
2019-01-20T10:51:21.405Z,60.70
2019-01-20T10:52:21.384Z,59.70
2019-01-20T10:53:21.357Z,60.90
2019-01-20T10:54:21.370Z,62.50
2019-01-20T10:55:21.357Z,62.60
2019-01-20T10:56:21.336Z,61.10
2019-01-20T10:57:21.318Z,58.60
2019-01-20T10:58:21.308Z,54.90
2019-01-20T10:59:21.288Z,58.30
2019-01-20T11:00:21.278Z,58.70
2019-01-20T11:01:21.263Z,55.40
2019-01-20T11:02:21.274Z,56.30
2019-01-20T11:03:21.253Z,57.20
2019-01-20T11:04:21.255Z,56.60
2019-01-20T11:05:25.136Z,56.70
2019-01-20T11:06:22.222Z,54.60
2019-01-20T11:07:21.245Z,57.10
2019-01-20T11:08:21.185Z,56.60
2019-01-20T11:09:21.200Z,57.70
2019-01-20T11:10:21.170Z,59.80
2019-01-20T11:11:21.162Z,56.00
2019-01-20T11:12:21.172Z,53.50
2019-01-20T11:13:21.135Z,64.40
2019-01-20T11:14:21.141Z,54.40
2019-01-20T11:15:21.120Z,58.40
2019-01-20T11:16:21.125Z,58.40
2019-01-20T11:17:21.104Z,56.50
2019-01-20T11:18:21.074Z,54.40
2019-01-20T11:19:21.058Z,54.10
2019-01-20T11:20:21.055Z,51.60
2019-01-20T11:21:21.036Z,55.20
2019-01-20T11:22:21.044Z,51.90
2019-01-20T11:23:21.030Z,51.30
2019-01-20T11:24:21.014Z,51.40
2019-01-20T11:25:21.007Z,51.30
2019-01-20T11:26:20.993Z,49.40
2019-01-20T11:27:21.003Z,51.00
2019-01-20T11:28:20.975Z,52.40
2019-01-20T11:29:20.948Z,54.30
2019-01-20T11:30:20.958Z,49.20
2019-01-20T11:31:20.931Z,47.10
2019-01-20T11:32:20.953Z,55.00
2019-01-20T11:33:20.962Z,53.00
2019-01-20T11:34:20.904Z,54.30
2019-01-20T11:35:20.905Z,54.90
2019-01-20T11:36:20.959Z,54.30
2019-01-20T11:37:20.865Z,55.10
2019-01-20T11:38:20.907Z,49.50
2019-01-20T11:39:20.860Z,46.80
2019-01-20T11:40:20.879Z,45.90
2019-01-20T11:41:20.827Z,45.70
2019-01-20T11:42:20.831Z,44.00
2019-01-20T11:43:20.828Z,47.20
2019-01-20T11:44:20.785Z,42.20
2019-01-20T11:45:20.794Z,45.80
2019-01-20T11:46:20.790Z,43.90
2019-01-20T11:47:20.769Z,42.70
2019-01-20T11:48:20.808Z,46.80
2019-01-20T11:49:20.733Z,43.00
2019-01-20T11:50:20.734Z,45.20
2019-01-20T11:51:20.711Z,41.30
2019-01-20T11:52:20.760Z,44.60
2019-01-20T11:53:20.703Z,44.30
2019-01-20T11:54:20.684Z,40.50
2019-01-20T11:55:20.672Z,43.50
2019-01-20T11:56:20.669Z,43.60
2019-01-20T11:57:20.651Z,36.50
2019-01-20T11:58:20.666Z,38.90
2019-01-20T11:59:20.641Z,42.90
2019-01-20T12:00:20.623Z,42.00
2019-01-20T12:01:20.619Z,42.80
2019-01-20T12:02:22.563Z,38.90
2019-01-20T12:03:20.609Z,39.30
2019-01-20T12:04:20.565Z,40.40
2019-01-20T12:05:20.568Z,41.60
2019-01-20T12:06:20.551Z,38.20
2019-01-20T12:07:20.543Z,38.50
2019-01-20T12:08:20.554Z,40.60
2019-01-20T12:09:20.532Z,37.20
2019-01-20T12:10:20.566Z,42.50
2019-01-20T12:11:20.498Z,40.60
2019-01-20T12:12:20.492Z,36.90
2019-01-20T12:13:20.479Z,38.50
2019-01-20T12:14:24.199Z,40.10
2019-01-20T12:15:20.453Z,40.80
2019-01-20T12:16:20.458Z,43.70
2019-01-20T12:17:20.427Z,42.10
2019-01-20T12:18:20.426Z,44.50
2019-01-20T12:19:20.419Z,43.00
2019-01-20T12:20:20.405Z,49.50
2019-01-20T12:21:20.410Z,40.60
2019-01-20T12:22:20.378Z,44.70
2019-01-20T12:23:20.384Z,43.90
2019-01-20T12:24:20.367Z,43.80
2019-01-20T12:25:20.344Z,46.10
2019-01-20T12:26:20.384Z,46.90
2019-01-20T12:27:20.318Z,45.70
2019-01-20T12:28:20.347Z,46.40
2019-01-20T12:29:20.298Z,48.80
2019-01-20T12:30:20.290Z,45.00
2019-01-20T12:31:20.267Z,45.60
2019-01-20T12:32:20.261Z,44.00
2019-01-20T12:33:20.259Z,45.70
2019-01-20T12:34:20.256Z,48.30
2019-01-20T12:35:20.241Z,49.30
2019-01-20T12:36:20.227Z,49.60
2019-01-20T12:37:20.206Z,48.30
2019-01-20T12:38:20.193Z,52.80
2019-01-20T12:39:20.203Z,50.10
2019-01-20T12:40:20.192Z,52.30
2019-01-20T12:41:20.173Z,51.00
2019-01-20T12:42:20.154Z,50.00
2019-01-20T12:43:20.143Z,50.10
2019-01-20T12:44:20.154Z,49.60
2019-01-20T12:45:20.194Z,49.70
2019-01-20T12:46:20.112Z,51.30
2019-01-20T12:47:20.110Z,48.00
2019-01-20T12:48:20.124Z,49.10
2019-01-20T12:49:20.100Z,48.70
2019-01-20T12:50:20.078Z,52.70
2019-01-20T12:51:20.062Z,51.40
2019-01-20T12:52:20.047Z,52.40